createdAt,value
2019-02-08T00:12:01.380Z,5.2
2019-02-08T00:27:01.408Z,5.2
2019-02-08T00:37:01.346Z,5.1
2019-02-08T00:52:01.498Z,5.1
2019-02-08T01:02:01.289Z,5.2
2019-02-08T01:17:01.415Z,5.2
2019-02-08T01:22:01.248Z,5.3
2019-02-08T01:37:01.379Z,5.3
2019-02-08T01:47:01.357Z,5.2
2019-02-08T01:57:01.351Z,5.1
2019-02-08T02:07:03.477Z,5.0
2019-02-08T02:22:01.281Z,5.0
2019-02-08T02:37:01.451Z,5.1
2019-02-08T02:52:01.483Z,5.2
2019-02-08T03:07:01.582Z,5.2
2019-02-08T03:17:01.409Z,5.3
2019-02-08T03:32:01.428Z,5.3
2019-02-08T03:47:01.405Z,5.3
2019-02-08T04:02:01.358Z,5.3
2019-02-08T04:17:01.442Z,5.3
2019-02-08T04:33:01.422Z,5.3
2019-02-08T04:48:01.344Z,5.3
2019-02-08T04:58:01.469Z,5.2
2019-02-08T05:14:01.421Z,5.2
2019-02-08T05:29:02.457Z,5.1
2019-02-08T05:44:01.417Z,5.1
2019-02-08T05:59:01.376Z,5.1
2019-02-08T06:14:01.305Z,5.1
2019-02-08T06:29:01.292Z,5.1
2019-02-08T06:44:06.302Z,5.1
2019-02-08T06:59:01.287Z,5.1
2019-02-08T07:14:01.286Z,5.1
2019-02-08T07:29:01.290Z,5.1
2019-02-08T07:44:01.307Z,5.1
2019-02-08T07:59:01.302Z,5.1
2019-02-08T08:04:01.959Z,5.2
2019-02-08T08:15:01.300Z,5.2
2019-02-08T08:25:01.287Z,5.3
2019-02-08T08:30:01.322Z,5.3
2019-02-08T08:35:01.309Z,5.4
2019-02-08T08:40:01.295Z,5.5
2019-02-08T08:45:01.292Z,5.6
2019-02-08T09:00:01.322Z,5.6
2019-02-08T09:05:06.259Z,5.7
2019-02-08T09:15:01.315Z,5.7
2019-02-08T09:30:01.291Z,5.7
2019-02-08T09:45:01.314Z,5.7
2019-02-08T10:00:01.703Z,5.7
2019-02-08T10:05:01.292Z,5.8
2019-02-08T10:15:01.268Z,5.8
2019-02-08T10:25:01.288Z,5.9
2019-02-08T10:30:01.322Z,5.9
2019-02-08T10:35:01.306Z,6.0
2019-02-08T10:40:01.309Z,6.1
2019-02-08T10:45:01.271Z,6.2
2019-02-08T10:50:01.373Z,6.3
2019-02-08T10:55:01.304Z,6.4
2019-02-08T11:11:01.303Z,6.4
2019-02-08T11:26:01.293Z,6.4
2019-02-08T11:42:01.354Z,6.4
2019-02-08T11:52:01.290Z,6.5
2019-02-08T12:07:01.289Z,6.5
2019-02-08T12:22:01.248Z,6.5
2019-02-08T12:37:01.319Z,6.5
2019-02-08T12:52:01.105Z,6.5
2019-02-08T13:07:01.287Z,6.5
2019-02-08T13:17:01.385Z,6.6
2019-02-08T13:32:01.291Z,6.6
2019-02-08T13:47:01.250Z,6.6
2019-02-08T14:02:01.291Z,6.6
2019-02-08T14:17:01.345Z,6.6
2019-02-08T14:27:08.901Z,6.5
2019-02-08T14:42:01.287Z,6.5
2019-02-08T14:57:01.257Z,6.5
2019-02-08T15:07:01.293Z,6.6
2019-02-08T15:12:01.291Z,6.5
2019-02-08T15:27:01.300Z,6.6
2019-02-08T15:43:01.289Z,6.6
2019-02-08T15:58:01.279Z,6.6
2019-02-08T16:13:01.257Z,6.6
2019-02-08T16:28:01.253Z,6.6
2019-02-08T16:43:01.265Z,6.6
2019-02-08T16:58:01.284Z,6.6
2019-02-08T17:13:01.285Z,6.5
2019-02-08T17:28:01.383Z,6.5
2019-02-08T17:38:01.362Z,6.6
2019-02-08T17:53:01.406Z,6.6
2019-02-08T18:08:01.384Z,6.6
2019-02-08T18:23:01.449Z,6.6
2019-02-08T18:38:01.480Z,6.7
2019-02-08T18:53:01.403Z,6.7
2019-02-08T19:08:02.272Z,6.7
2019-02-08T19:23:01.349Z,6.7
2019-02-08T19:28:01.294Z,6.6
2019-02-08T19:43:01.365Z,6.6
2019-02-08T19:58:01.362Z,6.6
2019-02-08T20:03:01.301Z,6.5
2019-02-08T20:18:01.407Z,6.5
2019-02-08T20:33:01.389Z,6.5
2019-02-08T20:38:01.351Z,6.6
2019-02-08T20:53:01.363Z,6.7
2019-02-08T21:03:01.386Z,6.8
2019-02-08T21:18:01.401Z,6.8
2019-02-08T21:23:01.281Z,6.9
2019-02-08T21:38:01.369Z,6.9
2019-02-08T21:53:01.433Z,6.9
2019-02-08T22:08:01.413Z,6.9
2019-02-08T22:23:01.498Z,6.9
2019-02-08T22:38:01.371Z,6.9
2019-02-08T22:48:01.349Z,6.8
2019-02-08T23:03:01.386Z,6.8
2019-02-08T23:13:01.415Z,6.7
2019-02-08T23:28:01.350Z,6.7
2019-02-08T23:43:01.374Z,6.7
2019-02-08T23:58:01.359Z,6.7
